To NAV CANADA Home Page Login to a new session Search on AWWS site Disclaimer Vers la page française équivalente Tips FAQ What's new on the site To the Forecasts and Observations / NOTAM section To "File a Flight Plan" website Publications and other links Update of the User's profile FIC Telephone Numbers My Weather Data Folder Route Weather Data Regional Weather Data Local Weather Data To the Forecasts and Observations / NOTAM section
Request Generated 03/19/2019 at 23:32:20 UTC . Weather information available at that time is displayed.

METAR/TAF

MARATHON/ON    

LWIS CYSP 192300Z AUTO 19010G16KT 140V240 M00/M04 A2999=
LWIS CYSP 192200Z AUTO 18007G17KT 160V240 00/M03 A3001=
METAR CYSP 192100Z CCA 20006G17KT 150V260 15SM FEW012 SCT070 BKN210 BKN220 01/M03 A3005 RMK SC2AC2CI1CI1 VIS LWR SW LAST STFD OBS/NE
XT 201200UTC SLP196=
METAR CYSP 192100Z 20006G17KT 150V260 15SM FEW012 SCT070 BKN210 BKN220 01/M03 A3005 RMK SC2AC2CI1CI1 VIS LWR SW LAST STFD OBS/NEXT 1
91200UTC SLP196=

*** REMARK        : Forecast period has ended; this was the last TAF issued
*** REMARQUE : La période de prévision est échue; ceci était le dernier TAF qui a été émis
TAF AMD CYSP 191819Z 1918/1921 20010KT P6SM FEW008 BKN080 TEMPO
1918/1921 6SM -SN BKN008
RMK NXT FCST WILL BE ISSUED AT 201345Z=
Your time UTC time
Weather data provided by Environment Canada and NAV CANADA